Wetterdaten: aktuell Dienstag, 18.06.2019 15:45
Datum Zeit Temp. A. Feuchte A. Luftdruck Regen Wind Richtung Richtung Taupunkt Windchill Windben
18.06.2019 15:45 27,3 C 44 % 1013,0 hPa 0,0 l/m 3,4 km/h (1 Bft) S 171 14,0 C 27,3 C 8,0 km/h (2 Bft)
18.06.2019 15:40 27,4 C 43 % 1012,9 hPa 0,0 l/m 4,0 km/h (1 Bft) NW 317 13,7 C 27,4 C 9,7 km/h (2 Bft)
18.06.2019 15:35 27,3 C 46 % 1012,9 hPa 0,0 l/m 5,5 km/h (1 Bft) SW 217 14,6 C 27,3 C 11,3 km/h (2 Bft)
18.06.2019 15:30 27,3 C 43 % 1012,9 hPa 0,0 l/m 5,3 km/h (1 Bft) NW 323 13,6 C 27,3 C 14,5 km/h (3 Bft)
18.06.2019 15:25 27,2 C 48 % 1013,0 hPa 0,0 l/m 6,6 km/h (2 Bft) S 182 15,2 C 27,2 C 12,9 km/h (3 Bft)
18.06.2019 15:20 26,9 C 47 % 1013,0 hPa 0,0 l/m 6,7 km/h (2 Bft) S 175 14,6 C 26,8 C 16,1 km/h (3 Bft)
18.06.2019 15:15 26,7 C 47 % 1013,0 hPa 0,0 l/m 8,0 km/h (2 Bft) S 188 14,4 C 26,4 C 16,1 km/h (3 Bft)
18.06.2019 15:10 26,8 C 46 % 1013,0 hPa 0,0 l/m 11,3 km/h (2 Bft) S 173 14,2 C 26,0 C 19,3 km/h (3 Bft)
18.06.2019 15:05 26,8 C 43 % 1013,1 hPa 0,0 l/m 13,1 km/h (3 Bft) S 171 13,2 C 25,7 C 22,5 km/h (4 Bft)
18.06.2019 15:00 27,2 C 46 % 1013,0 hPa 0,0 l/m 10,8 km/h (2 Bft) S 175 14,6 C 26,5 C 17,7 km/h (3 Bft)
18.06.2019 14:55 27,2 C 53 % 1013,0 hPa 0,0 l/m 8,0 km/h (2 Bft) S-SW 195 16,8 C 26,9 C 16,1 km/h (3 Bft)
18.06.2019 14:50 27,2 C 49 % 1013,1 hPa 0,0 l/m 9,4 km/h (2 Bft) S 178 15,5 C 26,7 C 17,7 km/h (3 Bft)
18.06.2019 14:45 27,2 C 52 % 1013,1 hPa 0,0 l/m 6,9 km/h (2 Bft) S 180 16,5 C 27,1 C 14,5 km/h (3 Bft)
18.06.2019 14:40 27,2 C 52 % 1013,1 hPa 0,0 l/m 6,3 km/h (2 Bft) S 182 16,5 C 27,2 C 16,1 km/h (3 Bft)
18.06.2019 14:35 26,8 C 51 % 1013,2 hPa 0,0 l/m 11,0 km/h (2 Bft) S 170 15,8 C 26,0 C 19,3 km/h (3 Bft)
18.06.2019 14:30 27,5 C 48 % 1013,3 hPa 0,0 l/m 6,9 km/h (2 Bft) SW 223 15,5 C 27,4 C 16,1 km/h (3 Bft)
18.06.2019 14:25 27,4 C 48 % 1013,3 hPa 0,0 l/m 5,8 km/h (2 Bft) NW 323 15,4 C 27,4 C 12,9 km/h (3 Bft)
18.06.2019 14:20 27,2 C 50 % 1013,2 hPa 0,0 l/m 4,5 km/h (1 Bft) S-SW 198 15,9 C 27,2 C 9,7 km/h (2 Bft)
18.06.2019 14:15 26,8 C 52 % 1013,3 hPa 0,0 l/m 7,6 km/h (2 Bft) S 184 16,1 C 26,6 C 14,5 km/h (3 Bft)
18.06.2019 14:10 26,8 C 50 % 1013,3 hPa 0,0 l/m 8,5 km/h (2 Bft) S 180 15,5 C 26,4 C 16,1 km/h (3 Bft)
18.06.2019 14:05 27,6 C 52 % 1013,2 hPa 0,0 l/m 4,8 km/h (1 Bft) S 185 16,8 C 27,6 C 16,1 km/h (3 Bft)
18.06.2019 14:00 27,4 C 50 % 1013,3 hPa 0,0 l/m 2,8 km/h (1 Bft) S-SO 148 16,0 C 27,4 C 8,0 km/h (2 Bft)
18.06.2019 13:55 27,2 C 49 % 1013,3 hPa 0,0 l/m 3,3 km/h (1 Bft) NW 305 15,5 C 27,2 C 6,4 km/h (2 Bft)
18.06.2019 13:50 27,2 C 48 % 1013,5 hPa 0,0 l/m 5,3 km/h (1 Bft) N-NW 343 15,2 C 27,2 C 9,7 km/h (2 Bft)
18.06.2019 13:45 27,4 C 48 % 1013,4 hPa 0,0 l/m 3,9 km/h (1 Bft) W-NW 287 15,4 C 27,4 C 8,0 km/h (2 Bft)
18.06.2019 13:40 27,4 C 53 % 1013,5 hPa 0,0 l/m 5,8 km/h (2 Bft) S 189 17,0 C 27,4 C 14,5 km/h (3 Bft)
18.06.2019 13:35 27,1 C 52 % 1013,4 hPa 0,0 l/m 3,3 km/h (1 Bft) S 181 16,4 C 27,1 C 8,0 km/h (2 Bft)
18.06.2019 13:30 27,4 C 50 % 1013,5 hPa 0,0 l/m 3,6 km/h (1 Bft) N-NW 329 16,0 C 27,4 C 8,0 km/h (2 Bft)
18.06.2019 13:25 26,8 C 51 % 1013,6 hPa 0,0 l/m 4,4 km/h (1 Bft) S 173 15,8 C 26,8 C 9,7 km/h (2 Bft)
18.06.2019 13:20 26,5 C 53 % 1013,6 hPa 0,0 l/m 2,8 km/h (1 Bft) N-NW 346 16,1 C 26,5 C 6,4 km/h (2 Bft)
18.06.2019 13:15 27,2 C 52 % 1013,6 hPa 0,0 l/m 2,9 km/h (1 Bft) N 5 16,5 C 27,2 C 6,4 km/h (2 Bft)
18.06.2019 13:10 26,8 C 54 % 1013,6 hPa 0,0 l/m 3,4 km/h (1 Bft) N-NW 334 16,7 C 26,8 C 6,4 km/h (2 Bft)
18.06.2019 13:05 26,8 C 55 % 1013,6 hPa 0,0 l/m 4,9 km/h (1 Bft) N 350 17,0 C 26,8 C 12,9 km/h (3 Bft)
18.06.2019 13:00 26,6 C 55 % 1013,6 hPa 0,0 l/m 2,9 km/h (1 Bft) N-NW 334 16,8 C 26,6 C 4,8 km/h (1 Bft)
18.06.2019 12:55 26,5 C 52 % 1013,8 hPa 0,0 l/m 3,0 km/h (1 Bft) N 355 15,8 C 26,5 C 6,4 km/h (2 Bft)
18.06.2019 12:50 26,7 C 54 % 1013,9 hPa 0,0 l/m 2,7 km/h (1 Bft) NW 326 16,6 C 26,7 C 4,8 km/h (1 Bft)
18.06.2019 12:45 26,6 C 53 % 1013,8 hPa 0,0 l/m 3,7 km/h (1 Bft) NW 319 16,2 C 26,6 C 6,4 km/h (2 Bft)
18.06.2019 12:40 26,7 C 55 % 1013,9 hPa 0,0 l/m 2,1 km/h (1 Bft) S-SW 193 16,9 C 26,7 C 4,8 km/h (1 Bft)
18.06.2019 12:35 26,7 C 54 % 1014,0 hPa 0,0 l/m 2,7 km/h (1 Bft) N-NW 327 16,6 C 26,7 C 8,0 km/h (2 Bft)
18.06.2019 12:30 26,3 C 56 % 1014,0 hPa 0,0 l/m 2,9 km/h (1 Bft) NW 306 16,8 C 26,3 C 8,0 km/h (2 Bft)
18.06.2019 12:25 25,9 C 49 % 1013,9 hPa 0,0 l/m 2,1 km/h (1 Bft) S 185 14,4 C 25,9 C 4,8 km/h (1 Bft)
18.06.2019 12:20 25,8 C 51 % 1013,9 hPa 0,0 l/m 4,3 km/h (1 Bft) S 185 14,9 C 25,8 C 9,7 km/h (2 Bft)
18.06.2019 12:15 25,7 C 50 % 1013,9 hPa 0,0 l/m 2,0 km/h (1 Bft) SW 220 14,5 C 25,7 C 6,4 km/h (2 Bft)
18.06.2019 12:10 26,0 C 49 % 1014,0 hPa 0,0 l/m 4,9 km/h (1 Bft) S 179 14,4 C 26,0 C 11,3 km/h (2 Bft)
18.06.2019 12:05 25,9 C 52 % 1014,0 hPa 0,0 l/m 1,8 km/h (1 Bft) NW 321 15,3 C 25,9 C 3,2 km/h (1 Bft)
18.06.2019 12:00 25,7 C 54 % 1014,0 hPa 0,0 l/m 2,8 km/h (1 Bft) N-NW 338 15,7 C 25,7 C 4,8 km/h (1 Bft)
18.06.2019 11:55 25,3 C 54 % 1013,9 hPa 0,0 l/m 3,3 km/h (1 Bft) N-NW 333 15,3 C 25,3 C 6,4 km/h (2 Bft)
18.06.2019 11:50 25,6 C 52 % 1014,1 hPa 0,0 l/m 2,2 km/h (1 Bft) S-SW 211 15,0 C 25,6 C 4,8 km/h (1 Bft)
18.06.2019 11:45 25,3 C 53 % 1014,0 hPa 0,0 l/m 2,2 km/h (1 Bft) N-NW 331 15,0 C 25,3 C 6,4 km/h (2 Bft)
18.06.2019 11:40 24,9 C 55 % 1014,1 hPa 0,0 l/m 2,7 km/h (1 Bft) N 349 15,2 C 24,9 C 6,4 km/h (2 Bft)
18.06.2019 11:35 24,7 C 58 % 1014,1 hPa 0,0 l/m 0,8 km/h (0 Bft) N-NO 33 15,9 C 24,7 C 3,2 km/h (1 Bft)
18.06.2019 11:30 24,6 C 59 % 1014,1 hPa 0,0 l/m 1,5 km/h (1 Bft) N 355 16,0 C 24,6 C 3,2 km/h (1 Bft)
18.06.2019 11:25 24,4 C 59 % 1014,2 hPa 0,0 l/m 2,1 km/h (1 Bft) N 355 15,9 C 24,4 C 4,8 km/h (1 Bft)
18.06.2019 11:20 24,3 C 60 % 1014,2 hPa 0,0 l/m 4,8 km/h (1 Bft) N 355 16,0 C 24,3 C 6,4 km/h (2 Bft)
18.06.2019 11:15 24,4 C 60 % 1014,2 hPa 0,0 l/m 2,7 km/h (1 Bft) N-NW 335 16,1 C 24,4 C 6,4 km/h (2 Bft)
18.06.2019 11:10 24,3 C 60 % 1014,3 hPa 0,0 l/m 2,8 km/h (1 Bft) NW 311 16,0 C 24,3 C 4,8 km/h (1 Bft)
18.06.2019 11:05 24,2 C 60 % 1014,4 hPa 0,0 l/m 1,7 km/h (1 Bft) NW 321 15,9 C 24,2 C 4,8 km/h (1 Bft)
18.06.2019 11:00 24,1 C 62 % 1014,5 hPa 0,0 l/m 2,5 km/h (1 Bft) N-NW 337 16,4 C 24,1 C 6,4 km/h (2 Bft)
18.06.2019 10:55 24,0 C 62 % 1014,5 hPa 0,0 l/m 2,4 km/h (1 Bft) N-NW 344 16,3 C 24,0 C 6,4 km/h (2 Bft)
18.06.2019 10:50 23,9 C 61 % 1014,4 hPa 0,0 l/m 2,9 km/h (1 Bft) N-NW 347 15,9 C 23,9 C 4,8 km/h (1 Bft)
18.06.2019 10:45 23,8 C 64 % 1014,5 hPa 0,0 l/m 1,7 km/h (1 Bft) W-NW 294 16,6 C 23,8 C 4,8 km/h (1 Bft)
18.06.2019 10:40 23,7 C 64 % 1014,5 hPa 0,0 l/m 1,4 km/h (1 Bft) W-NW 288 16,5 C 23,7 C 3,2 km/h (1 Bft)
18.06.2019 10:35 23,6 C 64 % 1014,5 hPa 0,0 l/m 1,7 km/h (1 Bft) W-NW 290 16,4 C 23,6 C 4,8 km/h (1 Bft)
18.06.2019 10:30 23,4 C 66 % 1014,5 hPa 0,0 l/m 1,0 km/h (0 Bft) W-SW 253 16,7 C 23,4 C 3,2 km/h (1 Bft)
18.06.2019 10:25 23,3 C 66 % 1014,5 hPa 0,0 l/m 2,8 km/h (1 Bft) W-SW 252 16,6 C 23,3 C 6,4 km/h (2 Bft)
18.06.2019 10:20 23,1 C 67 % 1014,6 hPa 0,0 l/m 4,0 km/h (1 Bft) S-SW 198 16,6 C 23,1 C 6,4 km/h (2 Bft)
18.06.2019 10:15 22,8 C 68 % 1014,7 hPa 0,0 l/m 2,3 km/h (1 Bft) S-SW 198 16,6 C 22,8 C 4,8 km/h (1 Bft)
18.06.2019 10:10 22,6 C 68 % 1014,7 hPa 0,0 l/m 3,2 km/h (1 Bft) S-SW 198 16,4 C 22,6 C 4,8 km/h (1 Bft)
18.06.2019 10:05 22,3 C 68 % 1014,7 hPa 0,0 l/m 0,5 km/h (0 Bft) N-NW 344 16,1 C 22,3 C 3,2 km/h (1 Bft)
18.06.2019 10:00 22,2 C 68 % 1014,7 hPa 0,0 l/m 0,5 km/h (0 Bft) N-NW 341 16,0 C 22,2 C 1,6 km/h (1 Bft)
18.06.2019 09:55 21,9 C 68 % 1014,7 hPa 0,0 l/m 1,1 km/h (1 Bft) N-NW 342 15,7 C 21,9 C 4,8 km/h (1 Bft)
18.06.2019 09:50 21,9 C 68 % 1014,8 hPa 0,0 l/m 2,7 km/h (1 Bft) N-NW 342 15,7 C 21,9 C 6,4 km/h (2 Bft)
18.06.2019 09:45 21,8 C 70 % 1014,9 hPa 0,0 l/m 2,3 km/h (1 Bft) N-NW 335 16,1 C 21,8 C 4,8 km/h (1 Bft)
18.06.2019 09:40 21,7 C 69 % 1015,0 hPa 0,0 l/m 2,3 km/h (1 Bft) N-NW 333 15,8 C 21,7 C 4,8 km/h (1 Bft)
18.06.2019 09:35 21,6 C 70 % 1015,1 hPa 0,0 l/m 1,2 km/h (1 Bft) N-NW 331 15,9 C 21,6 C 3,2 km/h (1 Bft)
18.06.2019 09:30 21,5 C 70 % 1015,1 hPa 0,0 l/m 2,9 km/h (1 Bft) N-NW 331 15,8 C 21,5 C 4,8 km/h (1 Bft)
18.06.2019 09:25 21,4 C 70 % 1015,1 hPa 0,0 l/m 1,6 km/h (1 Bft) W-NW 291 15,7 C 21,4 C 3,2 km/h (1 Bft)
18.06.2019 09:20 21,2 C 70 % 1015,1 hPa 0,0 l/m 1,9 km/h (1 Bft) W-NW 296 15,5 C 21,2 C 4,8 km/h (1 Bft)
18.06.2019 09:15 21,1 C 71 % 1015,2 hPa 0,0 l/m 1,1 km/h (1 Bft) W-NW 292 15,6 C 21,1 C 4,8 km/h (1 Bft)
18.06.2019 09:10 20,8 C 71 % 1015,1 hPa 0,0 l/m 0,3 km/h (0 Bft) W-NW 292 15,3 C 20,8 C 3,2 km/h (1 Bft)
18.06.2019 09:05 20,7 C 70 % 1015,1 hPa 0,0 l/m 1,5 km/h (1 Bft) W-NW 292 15,0 C 20,7 C 3,2 km/h (1 Bft)
18.06.2019 09:00 20,5 C 71 % 1015,1 hPa 0,0 l/m 1,3 km/h (1 Bft) W-NW 292 15,1 C 20,5 C 3,2 km/h (1 Bft)
18.06.2019 08:55 20,3 C 71 % 1015,1 hPa 0,0 l/m 0,8 km/h (0 Bft) W-NW 291 14,9 C 20,3 C 3,2 km/h (1 Bft)
18.06.2019 08:50 20,2 C 71 % 1015,0 hPa 0,0 l/m 1,7 km/h (1 Bft) W-NW 291 14,8 C 20,2 C 4,8 km/h (1 Bft)
18.06.2019 08:45 20,0 C 71 % 1015,1 hPa 0,0 l/m 1,6 km/h (1 Bft) W-NW 291 14,6 C 20,0 C 3,2 km/h (1 Bft)
18.06.2019 08:40 19,8 C 72 % 1014,9 hPa 0,0 l/m 2,5 km/h (1 Bft) W-NW 291 14,6 C 19,8 C 6,4 km/h (2 Bft)
18.06.2019 08:35 19,7 C 72 % 1015,0 hPa 0,0 l/m 2,5 km/h (1 Bft) W 279 14,5 C 19,7 C 4,8 km/h (1 Bft)
18.06.2019 08:30 19,4 C 72 % 1015,0 hPa 0,0 l/m 1,6 km/h (1 Bft) W-SW 257 14,2 C 19,4 C 4,8 km/h (1 Bft)
18.06.2019 08:25 19,2 C 74 % 1014,9 hPa 0,0 l/m 2,1 km/h (1 Bft) SW 223 14,4 C 19,2 C 3,2 km/h (1 Bft)
18.06.2019 08:20 19,0 C 75 % 1014,9 hPa 0,0 l/m 1,4 km/h (1 Bft) SW 223 14,5 C 19,0 C 3,2 km/h (1 Bft)
18.06.2019 08:15 18,7 C 75 % 1014,9 hPa 0,0 l/m 0,1 km/h (0 Bft) SW 223 14,2 C 18,7 C 1,6 km/h (1 Bft)
18.06.2019 08:10 18,6 C 75 % 1014,9 hPa 0,0 l/m 0,5 km/h (0 Bft) SW 223 14,1 C 18,6 C 1,6 km/h (1 Bft)
18.06.2019 08:05 18,4 C 75 % 1015,0 hPa 0,0 l/m 2,1 km/h (1 Bft) SW 223 13,9 C 18,4 C 3,2 km/h (1 Bft)
18.06.2019 08:00 18,2 C 76 % 1014,9 hPa 0,0 l/m 2,4 km/h (1 Bft) SW 223 13,9 C 18,2 C 4,8 km/h (1 Bft)
18.06.2019 07:55 18,0 C 78 % 1014,9 hPa 0,0 l/m 0,6 km/h (0 Bft) SW 223 14,1 C 18,0 C 1,6 km/h (1 Bft)
18.06.2019 07:50 17,8 C 78 % 1015,0 hPa 0,0 l/m 0,3 km/h (0 Bft) SW 223 13,9 C 17,8 C 1,6 km/h (1 Bft)
18.06.2019 07:45 17,6 C 79 % 1015,0 hPa 0,0 l/m 0,2 km/h (0 Bft) SW 223 13,9 C 17,6 C 1,6 km/h (1 Bft)
18.06.2019 07:40 17,3 C 80 % 1015,1 hPa 0,0 l/m 0,3 km/h (0 Bft) SW 223 13,8 C 17,3 C 1,6 km/h (1 Bft)
18.06.2019 07:35 17,2 C 81 % 1015,1 hPa 0,0 l/m 0,0 km/h (0 Bft) SW 223 13,9 C 17,2 C 0,0 km/h (0 Bft)
18.06.2019 07:30 17,0 C 82 % 1015,1 hPa 0,0 l/m 0,2 km/h (0 Bft) SW 223 13,9 C 17,0 C 1,6 km/h (1 Bft)
_ Min-Zeit 06:10 15:05 15:30 - 00:40 - - 04:35 06:10 00:40
Minimum _ 16,1 C 43 % 1012,9 hPa - 0,0 km/h (0 Bft) - - 12,4 C 16,1 C 0,0 km/h (0 Bft)
_ Max-Zeit 14:30 07:25 00:05 00:00 15:05 - - 13:05 14:05 15:05
Maximum _ 27,8 C 82 % 1015,9 hPa 0,0 l/m 13,1 km/h
S (3 Bft)
- - 17,0 C 27,6 C 22,5 km/h
S (4 Bft)
Durchschnitt _ 21,0 C 67 % 1014,6 hPa #0,0 l/m 1,9 km/h (1 Bft) S - 14,3 C 20,9 C 4,5 km/h (1 Bft)